Sheridan, WY

4:39 PM MDT on August 29, 2014 (GMT -0600)
North Airport Area | Change Station
CLOSE
Current Station
Personal Weather Station
Location: Sheridan, WY
Elevation: 3917 ft
Nearby Weather Stations

Elev 3917 ft 44.78 °N, 106.97 °W | Updated 10 minutes ago

Scattered Clouds
Scattered Clouds
75.4 °F
Feels Like 78 °F
N
1.1
Wind Variable Wind from NE

Today
High -- | Low -- °F
--% Chance of Precip.
Yesterday
High -- | Low -- °F
Precip. -- in
6:26 AM 7:49 PM
Waxing Crescent, 17% visible
Pressure 29.92 in
Visibility 10.0 miles
Clouds Scattered Clouds 11000 ft
Heat Index 78 °F
Dew Point 54 °F
Humidity 47%
Rainfall 0.02 in
Snow Depth Not available.
UV 4 out of 12
Pollen 8.30 out of 12
Air Quality Not available.
Flu Activity Not available.
METAR KSHR 292153Z AUTO VRB03KT 10SM SCT110 24/10 A3002 RMK AO2 SLP131 T02390100

More Conditions Fewer Conditions

Pressure 29.92 in
Visibility 10.0 miles
Clouds Scattered Clouds 11000 ft
Heat Index 78 °F
Dew Point 54 °F
Humidity 47%
Rainfall 0.02 in
Snow Depth Not available.
UV 4 out of 12
Pollen 8.30 out of 12
Air Quality Not available.
Flu Activity Not available.
METAR KSHR 292153Z AUTO VRB03KT 10SM SCT110 24/10 A3002 RMK AO2 SLP131 T02390100

More Conditions Fewer Conditions

10-Day Weather Forecast

Almanac

Astronomy

Aug. 29, 2014 Rise Set
Actual Time 6:26 AM MDT 7:49 PM MDT
Civil Twilight 5:56 AM MDT 8:20 PM MDT
Nautical Twilight 5:19 AM MDT 8:56 PM MDT
Astronomical Twilight 4:40 AM MDT 9:35 PM MDT
Moon 10:30 AM MDT 9:36 PM MDT
Length of Visible Light 14h 24m
Length of Day
13h 23m
Tomorrow will be 2m 58s shorter.
Waxing Crescent, 17% of the Moon is Illuminated
Today
Waxing Crescent
Sep 2
First Quarter
Sep 8
Full
Sep 15
Last Quarter
Sep 24
New

Today's Extremes

State Highs State Lows

Community

WunderPhotos

Upload Photos

1,748,363 photos uploaded!

Nearby

Snow Depth

Station Depth Elevation
Casper Mountain 0 in 7850 ft
Gros Ventre Summit 0 in 8750 ft
Big Sandy Opening 0 in 9080 ft
New Fork Lake 0 in 8340 ft
Loomis Park 0 in 8240 ft

Earthquake Activity

City Distance Mag. Time & Date
No recent earthquake activity has been reported nearby.
Minimum magnitude displayed is 2.5.

Coastal Water Temperatures

Place Temperature
No Stations Reporting

Nearby Weather Stations